sensor_id;sensor_type;location;lat;lon;timestamp;P1;durP1;ratioP1;P2;durP2;ratioP2
26191;SDS011;13935;55.672;37.764;2022-07-06T00:00:35;34.42;;;24.40;;
26191;SDS011;13935;55.672;37.764;2022-07-06T00:01:37;33.17;;;25.73;;
26191;SDS011;13935;55.672;37.764;2022-07-06T00:02:42;30.85;;;25.10;;
26191;SDS011;13935;55.672;37.764;2022-07-06T00:03:45;31.90;;;24.58;;
26191;SDS011;13935;55.672;37.764;2022-07-06T00:04:56;29.83;;;22.83;;
26191;SDS011;13935;55.672;37.764;2022-07-06T00:05:59;33.65;;;23.70;;
26191;SDS011;13935;55.672;37.764;2022-07-06T00:07:01;29.88;;;24.60;;
26191;SDS011;13935;55.672;37.764;2022-07-06T00:08:06;29.40;;;22.63;;
26191;SDS011;13935;55.672;37.764;2022-07-06T00:09:08;36.58;;;24.95;;
26191;SDS011;13935;55.672;37.764;2022-07-06T00:10:10;33.22;;;24.40;;
26191;SDS011;13935;55.672;37.764;2022-07-06T00:11:13;34.33;;;24.60;;
26191;SDS011;13935;55.672;37.764;2022-07-06T00:12:16;32.22;;;25.15;;
26191;SDS011;13935;55.672;37.764;2022-07-06T00:13:18;34.55;;;25.50;;
26191;SDS011;13935;55.672;37.764;2022-07-06T00:14:20;33.88;;;25.45;;
26191;SDS011;13935;55.672;37.764;2022-07-06T00:15:23;29.35;;;24.30;;
26191;SDS011;13935;55.672;37.764;2022-07-06T00:16:25;32.90;;;25.45;;
26191;SDS011;13935;55.672;37.764;2022-07-06T00:17:29;32.30;;;25.83;;
26191;SDS011;13935;55.672;37.764;2022-07-06T00:18:34;34.88;;;26.02;;
26191;SDS011;13935;55.672;37.764;2022-07-06T00:19:37;34.17;;;25.27;;
26191;SDS011;13935;55.672;37.764;2022-07-06T00:20:39;34.72;;;27.20;;
26191;SDS011;13935;55.672;37.764;2022-07-06T00:21:44;32.65;;;26.45;;
26191;SDS011;13935;55.672;37.764;2022-07-06T00:22:47;32.92;;;26.30;;
26191;SDS011;13935;55.672;37.764;2022-07-06T00:23:52;31.02;;;26.13;;
26191;SDS011;13935;55.672;37.764;2022-07-06T00:24:54;31.30;;;24.38;;
26191;SDS011;13935;55.672;37.764;2022-07-06T00:25:57;30.70;;;25.05;;
26191;SDS011;13935;55.672;37.764;2022-07-06T00:26:59;27.92;;;24.02;;
26191;SDS011;13935;55.672;37.764;2022-07-06T00:28:04;30.52;;;26.20;;
26191;SDS011;13935;55.672;37.764;2022-07-06T00:29:09;29.90;;;26.42;;
26191;SDS011;13935;55.672;37.764;2022-07-06T00:30:31;31.90;;;25.70;;
26191;SDS011;13935;55.672;37.764;2022-07-06T00:31:36;29.20;;;25.65;;
26191;SDS011;13935;55.672;37.764;2022-07-06T00:32:38;29.98;;;24.85;;
26191;SDS011;13935;55.672;37.764;2022-07-06T00:33:45;26.52;;;23.55;;
26191;SDS011;13935;55.672;37.764;2022-07-06T00:34:47;29.63;;;24.02;;
26191;SDS011;13935;55.672;37.764;2022-07-06T00:35:49;30.67;;;24.80;;
26191;SDS011;13935;55.672;37.764;2022-07-06T00:36:52;33.47;;;26.13;;
26191;SDS011;13935;55.672;37.764;2022-07-06T00:37:56;27.63;;;23.60;;
26191;SDS011;13935;55.672;37.764;2022-07-06T00:38:59;30.73;;;26.48;;
26191;SDS011;13935;55.672;37.764;2022-07-06T00:40:41;31.73;;;26.00;;
26191;SDS011;13935;55.672;37.764;2022-07-06T00:41:47;32.97;;;25.92;;
26191;SDS011;13935;55.672;37.764;2022-07-06T00:42:50;34.65;;;25.98;;
26191;SDS011;13935;55.672;37.764;2022-07-06T00:43:56;32.67;;;26.52;;
26191;SDS011;13935;55.672;37.764;2022-07-06T00:45:01;33.30;;;25.85;;
26191;SDS011;13935;55.672;37.764;2022-07-06T00:46:03;31.92;;;26.08;;
26191;SDS011;13935;55.672;37.764;2022-07-06T00:47:05;29.60;;;25.33;;
26191;SDS011;13935;55.672;37.764;2022-07-06T00:48:09;32.22;;;26.25;;
26191;SDS011;13935;55.672;37.764;2022-07-06T00:49:11;33.85;;;26.77;;
26191;SDS011;13935;55.672;37.764;2022-07-06T00:50:34;30.63;;;26.40;;
26191;SDS011;13935;55.672;37.764;2022-07-06T00:51:39;34.45;;;26.02;;
26191;SDS011;13935;55.672;37.764;2022-07-06T00:52:44;33.53;;;27.25;;
26191;SDS011;13935;55.672;37.764;2022-07-06T00:54:04;33.83;;;26.75;;
26191;SDS011;13935;55.672;37.764;2022-07-06T00:55:09;32.70;;;26.70;;
26191;SDS011;13935;55.672;37.764;2022-07-06T00:56:19;33.00;;;25.67;;
26191;SDS011;13935;55.672;37.764;2022-07-06T00:57:24;35.92;;;26.13;;
26191;SDS011;13935;55.672;37.764;2022-07-06T00:58:33;33.63;;;25.85;;
26191;SDS011;13935;55.672;37.764;2022-07-06T00:59:38;34.55;;;26.48;;
26191;SDS011;13935;55.672;37.764;2022-07-06T01:00:41;32.72;;;26.55;;
26191;SDS011;13935;55.672;37.764;2022-07-06T01:01:47;30.05;;;25.90;;
26191;SDS011;13935;55.672;37.764;2022-07-06T01:02:49;31.83;;;26.25;;
26191;SDS011;13935;55.672;37.764;2022-07-06T01:03:52;31.98;;;27.30;;
26191;SDS011;13935;55.672;37.764;2022-07-06T01:04:54;31.60;;;25.95;;
26191;SDS011;13935;55.672;37.764;2022-07-06T01:05:56;34.15;;;27.45;;
26191;SDS011;13935;55.672;37.764;2022-07-06T01:07:02;30.38;;;26.88;;
26191;SDS011;13935;55.672;37.764;2022-07-06T01:08:07;31.33;;;26.70;;
26191;SDS011;13935;55.672;37.764;2022-07-06T01:09:13;32.20;;;26.60;;
26191;SDS011;13935;55.672;37.764;2022-07-06T01:10:33;33.88;;;26.73;;
26191;SDS011;13935;55.672;37.764;2022-07-06T01:11:37;32.85;;;26.48;;
26191;SDS011;13935;55.672;37.764;2022-07-06T01:12:43;35.33;;;26.60;;
26191;SDS011;13935;55.672;37.764;2022-07-06T01:13:52;37.17;;;27.02;;
26191;SDS011;13935;55.672;37.764;2022-07-06T01:14:55;30.55;;;26.35;;
26191;SDS011;13935;55.672;37.764;2022-07-06T01:15:59;36.47;;;26.33;;
26191;SDS011;13935;55.672;37.764;2022-07-06T01:17:02;30.77;;;25.55;;
26191;SDS011;13935;55.672;37.764;2022-07-06T01:18:04;31.55;;;24.00;;
26191;SDS011;13935;55.672;37.764;2022-07-06T01:19:06;27.52;;;23.35;;
26191;SDS011;13935;55.672;37.764;2022-07-06T01:20:12;31.38;;;25.65;;
26191;SDS011;13935;55.672;37.764;2022-07-06T01:21:18;32.60;;;25.48;;
26191;SDS011;13935;55.672;37.764;2022-07-06T01:22:20;31.55;;;25.02;;
26191;SDS011;13935;55.672;37.764;2022-07-06T01:23:23;33.85;;;25.40;;
26191;SDS011;13935;55.672;37.764;2022-07-06T01:24:25;31.05;;;24.95;;
26191;SDS011;13935;55.672;37.764;2022-07-06T01:25:30;30.42;;;24.27;;
26191;SDS011;13935;55.672;37.764;2022-07-06T01:26:55;31.42;;;24.25;;
26191;SDS011;13935;55.672;37.764;2022-07-06T01:27:59;32.88;;;25.27;;
26191;SDS011;13935;55.672;37.764;2022-07-06T01:29:01;33.90;;;25.27;;
26191;SDS011;13935;55.672;37.764;2022-07-06T01:30:07;32.17;;;26.15;;
26191;SDS011;13935;55.672;37.764;2022-07-06T01:31:29;33.22;;;26.27;;
26191;SDS011;13935;55.672;37.764;2022-07-06T01:32:33;32.35;;;25.50;;
26191;SDS011;13935;55.672;37.764;2022-07-06T01:33:36;31.63;;;24.85;;
26191;SDS011;13935;55.672;37.764;2022-07-06T01:34:39;32.03;;;26.58;;
26191;SDS011;13935;55.672;37.764;2022-07-06T01:35:45;29.98;;;26.27;;
26191;SDS011;13935;55.672;37.764;2022-07-06T01:36:47;29.40;;;26.20;;
26191;SDS011;13935;55.672;37.764;2022-07-06T01:37:49;31.02;;;24.98;;
26191;SDS011;13935;55.672;37.764;2022-07-06T01:38:55;34.15;;;26.45;;
26191;SDS011;13935;55.672;37.764;2022-07-06T01:40:01;29.60;;;25.50;;
26191;SDS011;13935;55.672;37.764;2022-07-06T01:41:15;29.30;;;24.58;;
26191;SDS011;13935;55.672;37.764;2022-07-06T01:42:18;32.58;;;26.17;;
26191;SDS011;13935;55.672;37.764;2022-07-06T01:43:23;31.90;;;25.48;;
26191;SDS011;13935;55.672;37.764;2022-07-06T01:44:27;28.38;;;25.27;;
26191;SDS011;13935;55.672;37.764;2022-07-06T01:45:31;32.88;;;25.40;;
26191;SDS011;13935;55.672;37.764;2022-07-06T01:46:35;28.75;;;24.40;;
26191;SDS011;13935;55.672;37.764;2022-07-06T01:47:41;30.33;;;23.58;;
26191;SDS011;13935;55.672;37.764;2022-07-06T01:48:46;29.75;;;24.85;;
26191;SDS011;13935;55.672;37.764;2022-07-06T01:49:48;33.83;;;26.27;;
26191;SDS011;13935;55.672;37.764;2022-07-06T01:50:51;27.98;;;24.92;;
26191;SDS011;13935;55.672;37.764;2022-07-06T01:51:53;36.20;;;29.50;;
26191;SDS011;13935;55.672;37.764;2022-07-06T01:52:59;35.03;;;29.20;;
26191;SDS011;13935;55.672;37.764;2022-07-06T01:54:01;34.50;;;27.55;;
26191;SDS011;13935;55.672;37.764;2022-07-06T01:55:04;35.10;;;28.00;;
26191;SDS011;13935;55.672;37.764;2022-07-06T01:56:08;40.05;;;29.52;;
26191;SDS011;13935;55.672;37.764;2022-07-06T01:57:11;37.13;;;29.58;;
26191;SDS011;13935;55.672;37.764;2022-07-06T01:58:13;35.17;;;29.77;;
26191;SDS011;13935;55.672;37.764;2022-07-06T01:59:16;36.00;;;29.83;;
26191;SDS011;13935;55.672;37.764;2022-07-06T02:00:18;35.97;;;27.25;;
26191;SDS011;13935;55.672;37.764;2022-07-06T02:01:24;36.33;;;29.63;;
26191;SDS011;13935;55.672;37.764;2022-07-06T02:02:27;37.40;;;29.80;;
26191;SDS011;13935;55.672;37.764;2022-07-06T02:03:31;37.70;;;27.50;;
26191;SDS011;13935;55.672;37.764;2022-07-06T02:04:35;35.95;;;28.70;;
26191;SDS011;13935;55.672;37.764;2022-07-06T02:05:37;35.70;;;27.00;;
26191;SDS011;13935;55.672;37.764;2022-07-06T02:06:39;35.67;;;28.98;;
26191;SDS011;13935;55.672;37.764;2022-07-06T02:07:41;38.83;;;31.45;;
26191;SDS011;13935;55.672;37.764;2022-07-06T02:08:46;41.83;;;30.50;;
26191;SDS011;13935;55.672;37.764;2022-07-06T02:09:48;45.28;;;31.05;;
26191;SDS011;13935;55.672;37.764;2022-07-06T02:10:52;40.90;;;31.98;;
26191;SDS011;13935;55.672;37.764;2022-07-06T02:11:54;37.08;;;31.33;;
26191;SDS011;13935;55.672;37.764;2022-07-06T02:12:57;42.20;;;32.10;;
26191;SDS011;13935;55.672;37.764;2022-07-06T02:14:00;41.22;;;32.45;;
26191;SDS011;13935;55.672;37.764;2022-07-06T02:15:02;43.17;;;31.63;;
26191;SDS011;13935;55.672;37.764;2022-07-06T02:16:05;45.22;;;33.75;;
26191;SDS011;13935;55.672;37.764;2022-07-06T02:17:08;45.08;;;35.08;;
26191;SDS011;13935;55.672;37.764;2022-07-06T02:18:10;49.15;;;34.78;;
26191;SDS011;13935;55.672;37.764;2022-07-06T02:19:12;43.97;;;35.15;;
26191;SDS011;13935;55.672;37.764;2022-07-06T02:20:14;47.58;;;37.53;;
26191;SDS011;13935;55.672;37.764;2022-07-06T02:21:18;51.70;;;38.42;;
26191;SDS011;13935;55.672;37.764;2022-07-06T02:22:21;47.53;;;36.50;;
26191;SDS011;13935;55.672;37.764;2022-07-06T02:23:23;48.13;;;36.58;;
26191;SDS011;13935;55.672;37.764;2022-07-06T02:24:26;48.72;;;37.45;;
26191;SDS011;13935;55.672;37.764;2022-07-06T02:25:29;50.60;;;37.75;;
26191;SDS011;13935;55.672;37.764;2022-07-06T02:26:31;47.15;;;35.38;;
26191;SDS011;13935;55.672;37.764;2022-07-06T02:27:33;51.90;;;36.40;;
26191;SDS011;13935;55.672;37.764;2022-07-06T02:28:38;44.05;;;35.22;;
26191;SDS011;13935;55.672;37.764;2022-07-06T02:29:41;49.78;;;34.13;;
26191;SDS011;13935;55.672;37.764;2022-07-06T02:30:47;45.20;;;34.00;;
26191;SDS011;13935;55.672;37.764;2022-07-06T02:31:49;45.00;;;34.05;;
26191;SDS011;13935;55.672;37.764;2022-07-06T02:32:51;38.78;;;32.50;;
26191;SDS011;13935;55.672;37.764;2022-07-06T02:33:54;41.03;;;33.22;;
26191;SDS011;13935;55.672;37.764;2022-07-06T02:34:56;40.33;;;32.53;;
26191;SDS011;13935;55.672;37.764;2022-07-06T02:35:59;39.60;;;32.45;;
26191;SDS011;13935;55.672;37.764;2022-07-06T02:37:01;46.47;;;34.60;;
26191;SDS011;13935;55.672;37.764;2022-07-06T02:38:04;48.28;;;35.28;;
26191;SDS011;13935;55.672;37.764;2022-07-06T02:39:06;43.80;;;34.78;;
26191;SDS011;13935;55.672;37.764;2022-07-06T02:40:09;45.35;;;36.22;;
26191;SDS011;13935;55.672;37.764;2022-07-06T02:41:11;48.03;;;36.15;;
26191;SDS011;13935;55.672;37.764;2022-07-06T02:42:14;45.67;;;35.78;;
26191;SDS011;13935;55.672;37.764;2022-07-06T02:43:17;46.50;;;34.60;;
26191;SDS011;13935;55.672;37.764;2022-07-06T02:44:19;46.40;;;36.20;;
26191;SDS011;13935;55.672;37.764;2022-07-06T02:45:38;41.45;;;34.42;;
26191;SDS011;13935;55.672;37.764;2022-07-06T02:46:43;47.47;;;34.85;;
26191;SDS011;13935;55.672;37.764;2022-07-06T02:47:45;47.22;;;35.67;;
26191;SDS011;13935;55.672;37.764;2022-07-06T02:48:48;47.95;;;35.95;;
26191;SDS011;13935;55.672;37.764;2022-07-06T02:49:52;42.50;;;33.90;;
26191;SDS011;13935;55.672;37.764;2022-07-06T02:50:55;48.58;;;35.70;;
26191;SDS011;13935;55.672;37.764;2022-07-06T02:51:58;45.65;;;37.00;;
26191;SDS011;13935;55.672;37.764;2022-07-06T02:53:00;46.33;;;37.17;;
26191;SDS011;13935;55.672;37.764;2022-07-06T02:54:05;44.85;;;35.17;;
26191;SDS011;13935;55.672;37.764;2022-07-06T02:55:07;44.75;;;35.70;;
26191;SDS011;13935;55.672;37.764;2022-07-06T02:56:11;46.15;;;36.90;;
26191;SDS011;13935;55.672;37.764;2022-07-06T02:57:14;42.83;;;35.30;;
26191;SDS011;13935;55.672;37.764;2022-07-06T02:58:17;44.15;;;36.35;;
26191;SDS011;13935;55.672;37.764;2022-07-06T02:59:20;45.92;;;34.13;;
26191;SDS011;13935;55.672;37.764;2022-07-06T03:00:23;43.83;;;35.45;;
26191;SDS011;13935;55.672;37.764;2022-07-06T03:01:29;42.22;;;33.65;;
26191;SDS011;13935;55.672;37.764;2022-07-06T03:02:31;46.00;;;35.55;;
26191;SDS011;13935;55.672;37.764;2022-07-06T03:03:34;41.63;;;33.83;;
26191;SDS011;13935;55.672;37.764;2022-07-06T03:04:39;38.75;;;33.67;;
26191;SDS011;13935;55.672;37.764;2022-07-06T03:05:41;43.90;;;34.60;;
26191;SDS011;13935;55.672;37.764;2022-07-06T03:06:43;39.60;;;31.60;;
26191;SDS011;13935;55.672;37.764;2022-07-06T03:07:47;43.60;;;33.15;;
26191;SDS011;13935;55.672;37.764;2022-07-06T03:08:51;37.35;;;31.35;;
26191;SDS011;13935;55.672;37.764;2022-07-06T03:09:53;40.50;;;32.38;;
26191;SDS011;13935;55.672;37.764;2022-07-06T03:10:55;39.67;;;33.17;;
26191;SDS011;13935;55.672;37.764;2022-07-06T03:11:58;39.67;;;33.13;;
26191;SDS011;13935;55.672;37.764;2022-07-06T03:13:00;36.95;;;30.73;;
26191;SDS011;13935;55.672;37.764;2022-07-06T03:14:03;39.28;;;33.20;;
26191;SDS011;13935;55.672;37.764;2022-07-06T03:15:09;39.65;;;32.33;;
26191;SDS011;13935;55.672;37.764;2022-07-06T03:16:13;38.10;;;33.28;;
26191;SDS011;13935;55.672;37.764;2022-07-06T03:17:16;38.35;;;32.15;;
26191;SDS011;13935;55.672;37.764;2022-07-06T03:18:19;34.55;;;30.90;;
26191;SDS011;13935;55.672;37.764;2022-07-06T03:19:22;37.28;;;32.42;;
26191;SDS011;13935;55.672;37.764;2022-07-06T03:20:24;35.20;;;30.83;;
26191;SDS011;13935;55.672;37.764;2022-07-06T03:21:27;36.33;;;30.80;;
26191;SDS011;13935;55.672;37.764;2022-07-06T03:22:29;36.85;;;32.28;;
26191;SDS011;13935;55.672;37.764;2022-07-06T03:23:32;40.70;;;31.88;;
26191;SDS011;13935;55.672;37.764;2022-07-06T03:24:35;33.70;;;30.30;;
26191;SDS011;13935;55.672;37.764;2022-07-06T03:25:39;37.80;;;30.77;;
26191;SDS011;13935;55.672;37.764;2022-07-06T03:26:42;36.05;;;30.98;;
26191;SDS011;13935;55.672;37.764;2022-07-06T03:27:46;34.65;;;30.85;;
26191;SDS011;13935;55.672;37.764;2022-07-06T03:28:51;36.40;;;30.83;;
26191;SDS011;13935;55.672;37.764;2022-07-06T03:29:55;33.42;;;29.02;;
26191;SDS011;13935;55.672;37.764;2022-07-06T03:30:57;35.63;;;29.77;;
26191;SDS011;13935;55.672;37.764;2022-07-06T03:32:00;32.70;;;29.55;;
26191;SDS011;13935;55.672;37.764;2022-07-06T03:33:02;33.55;;;30.05;;
26191;SDS011;13935;55.672;37.764;2022-07-06T03:34:04;32.85;;;28.83;;
26191;SDS011;13935;55.672;37.764;2022-07-06T03:35:08;33.65;;;30.08;;
26191;SDS011;13935;55.672;37.764;2022-07-06T03:36:11;33.05;;;29.85;;
26191;SDS011;13935;55.672;37.764;2022-07-06T03:37:13;34.85;;;31.20;;
26191;SDS011;13935;55.672;37.764;2022-07-06T03:38:16;37.58;;;31.48;;
26191;SDS011;13935;55.672;37.764;2022-07-06T03:39:21;32.65;;;29.40;;
26191;SDS011;13935;55.672;37.764;2022-07-06T03:40:24;35.22;;;31.38;;
26191;SDS011;13935;55.672;37.764;2022-07-06T03:41:26;34.20;;;28.92;;
26191;SDS011;13935;55.672;37.764;2022-07-06T03:42:29;33.92;;;29.67;;
26191;SDS011;13935;55.672;37.764;2022-07-06T03:43:31;33.97;;;30.67;;
26191;SDS011;13935;55.672;37.764;2022-07-06T03:44:33;33.53;;;30.25;;
26191;SDS011;13935;55.672;37.764;2022-07-06T03:45:37;33.45;;;29.88;;
26191;SDS011;13935;55.672;37.764;2022-07-06T03:47:23;32.80;;;29.25;;
26191;SDS011;13935;55.672;37.764;2022-07-06T03:48:26;31.63;;;28.30;;
26191;SDS011;13935;55.672;37.764;2022-07-06T03:49:28;34.50;;;30.60;;
26191;SDS011;13935;55.672;37.764;2022-07-06T03:50:33;34.78;;;30.27;;
26191;SDS011;13935;55.672;37.764;2022-07-06T03:51:36;33.95;;;30.65;;
26191;SDS011;13935;55.672;37.764;2022-07-06T03:52:39;33.20;;;29.67;;
26191;SDS011;13935;55.672;37.764;2022-07-06T03:53:42;33.03;;;29.70;;
26191;SDS011;13935;55.672;37.764;2022-07-06T03:54:45;33.88;;;30.55;;
26191;SDS011;13935;55.672;37.764;2022-07-06T03:55:52;32.92;;;29.67;;
26191;SDS011;13935;55.672;37.764;2022-07-06T03:57:13;32.58;;;29.38;;
26191;SDS011;13935;55.672;37.764;2022-07-06T03:58:16;32.80;;;29.35;;
26191;SDS011;13935;55.672;37.764;2022-07-06T03:59:18;31.70;;;28.42;;
26191;SDS011;13935;55.672;37.764;2022-07-06T04:00:21;33.88;;;30.40;;
26191;SDS011;13935;55.672;37.764;2022-07-06T04:01:31;34.35;;;30.75;;
26191;SDS011;13935;55.672;37.764;2022-07-06T04:02:34;33.45;;;30.02;;
26191;SDS011;13935;55.672;37.764;2022-07-06T04:03:36;37.92;;;30.02;;
26191;SDS011;13935;55.672;37.764;2022-07-06T04:04:41;32.80;;;29.40;;
26191;SDS011;13935;55.672;37.764;2022-07-06T04:05:43;34.58;;;31.17;;
26191;SDS011;13935;55.672;37.764;2022-07-06T04:06:46;31.63;;;28.52;;
26191;SDS011;13935;55.672;37.764;2022-07-06T04:07:49;33.10;;;29.80;;
26191;SDS011;13935;55.672;37.764;2022-07-06T04:08:51;33.72;;;30.52;;
26191;SDS011;13935;55.672;37.764;2022-07-06T04:09:54;33.55;;;30.08;;
26191;SDS011;13935;55.672;37.764;2022-07-06T04:10:56;33.33;;;30.08;;
26191;SDS011;13935;55.672;37.764;2022-07-06T04:11:58;31.92;;;28.73;;
26191;SDS011;13935;55.672;37.764;2022-07-06T04:13:01;33.78;;;30.48;;
26191;SDS011;13935;55.672;37.764;2022-07-06T04:14:04;32.08;;;28.98;;
26191;SDS011;13935;55.672;37.764;2022-07-06T04:15:07;31.90;;;28.60;;
26191;SDS011;13935;55.672;37.764;2022-07-06T04:16:09;31.85;;;28.45;;
26191;SDS011;13935;55.672;37.764;2022-07-06T04:17:12;32.63;;;28.77;;
26191;SDS011;13935;55.672;37.764;2022-07-06T04:18:33;32.80;;;29.42;;
26191;SDS011;13935;55.672;37.764;2022-07-06T04:19:39;32.45;;;29.38;;
26191;SDS011;13935;55.672;37.764;2022-07-06T04:20:41;32.20;;;28.98;;
26191;SDS011;13935;55.672;37.764;2022-07-06T04:21:43;29.67;;;26.80;;
26191;SDS011;13935;55.672;37.764;2022-07-06T04:22:45;31.80;;;28.63;;
26191;SDS011;13935;55.672;37.764;2022-07-06T04:23:48;33.15;;;29.85;;
26191;SDS011;13935;55.672;37.764;2022-07-06T04:24:53;32.72;;;29.58;;
26191;SDS011;13935;55.672;37.764;2022-07-06T04:25:56;32.00;;;28.83;;
26191;SDS011;13935;55.672;37.764;2022-07-06T04:27:00;32.88;;;29.48;;
26191;SDS011;13935;55.672;37.764;2022-07-06T04:28:03;33.30;;;30.02;;
26191;SDS011;13935;55.672;37.764;2022-07-06T04:29:07;32.63;;;29.23;;
26191;SDS011;13935;55.672;37.764;2022-07-06T04:30:10;32.33;;;29.10;;
26191;SDS011;13935;55.672;37.764;2022-07-06T04:31:18;30.92;;;28.05;;
26191;SDS011;13935;55.672;37.764;2022-07-06T04:32:23;29.67;;;26.70;;
26191;SDS011;13935;55.672;37.764;2022-07-06T04:33:27;29.88;;;26.60;;
26191;SDS011;13935;55.672;37.764;2022-07-06T04:34:29;29.80;;;26.92;;
26191;SDS011;13935;55.672;37.764;2022-07-06T04:35:32;32.45;;;28.60;;
26191;SDS011;13935;55.672;37.764;2022-07-06T04:36:34;28.88;;;26.13;;
26191;SDS011;13935;55.672;37.764;2022-07-06T04:37:39;30.52;;;27.40;;
26191;SDS011;13935;55.672;37.764;2022-07-06T04:38:42;31.10;;;27.83;;
26191;SDS011;13935;55.672;37.764;2022-07-06T04:39:45;37.03;;;29.33;;
26191;SDS011;13935;55.672;37.764;2022-07-06T04:40:48;30.95;;;27.83;;
26191;SDS011;13935;55.672;37.764;2022-07-06T04:41:52;30.02;;;27.13;;
26191;SDS011;13935;55.672;37.764;2022-07-06T04:42:56;30.25;;;27.00;;
26191;SDS011;13935;55.672;37.764;2022-07-06T04:44:00;32.40;;;29.08;;
26191;SDS011;13935;55.672;37.764;2022-07-06T04:45:11;31.08;;;28.13;;
26191;SDS011;13935;55.672;37.764;2022-07-06T04:46:23;31.33;;;28.20;;
26191;SDS011;13935;55.672;37.764;2022-07-06T04:47:31;32.57;;;29.37;;
26191;SDS011;13935;55.672;37.764;2022-07-06T04:48:33;31.40;;;28.33;;
26191;SDS011;13935;55.672;37.764;2022-07-06T04:49:45;32.05;;;28.95;;
26191;SDS011;13935;55.672;37.764;2022-07-06T04:50:49;32.03;;;29.08;;
26191;SDS011;13935;55.672;37.764;2022-07-06T04:51:57;31.95;;;28.95;;
26191;SDS011;13935;55.672;37.764;2022-07-06T04:53:01;33.30;;;29.63;;
26191;SDS011;13935;55.672;37.764;2022-07-06T04:54:05;32.70;;;29.42;;
26191;SDS011;13935;55.672;37.764;2022-07-06T04:55:09;32.47;;;29.30;;
26191;SDS011;13935;55.672;37.764;2022-07-06T04:56:11;30.05;;;26.83;;
26191;SDS011;13935;55.672;37.764;2022-07-06T04:57:14;31.90;;;28.63;;
26191;SDS011;13935;55.672;37.764;2022-07-06T04:58:17;30.63;;;27.73;;
26191;SDS011;13935;55.672;37.764;2022-07-06T04:59:22;28.13;;;25.45;;
26191;SDS011;13935;55.672;37.764;2022-07-06T05:00:25;29.20;;;26.38;;
26191;SDS011;13935;55.672;37.764;2022-07-06T05:01:27;29.60;;;26.58;;
26191;SDS011;13935;55.672;37.764;2022-07-06T05:02:30;30.83;;;27.80;;
26191;SDS011;13935;55.672;37.764;2022-07-06T05:03:33;30.85;;;27.92;;
26191;SDS011;13935;55.672;37.764;2022-07-06T05:04:38;31.83;;;28.58;;
26191;SDS011;13935;55.672;37.764;2022-07-06T05:05:41;32.97;;;29.83;;
26191;SDS011;13935;55.672;37.764;2022-07-06T05:06:44;33.05;;;29.92;;
26191;SDS011;13935;55.672;37.764;2022-07-06T05:07:47;32.75;;;29.45;;
26191;SDS011;13935;55.672;37.764;2022-07-06T05:08:49;31.65;;;28.95;;
26191;SDS011;13935;55.672;37.764;2022-07-06T05:09:52;35.42;;;30.92;;
26191;SDS011;13935;55.672;37.764;2022-07-06T05:10:55;33.95;;;30.77;;
26191;SDS011;13935;55.672;37.764;2022-07-06T05:11:57;33.03;;;29.67;;
26191;SDS011;13935;55.672;37.764;2022-07-06T05:12:59;32.40;;;29.15;;
26191;SDS011;13935;55.672;37.764;2022-07-06T05:14:09;32.67;;;29.20;;
26191;SDS011;13935;55.672;37.764;2022-07-06T05:15:12;34.55;;;30.92;;
26191;SDS011;13935;55.672;37.764;2022-07-06T05:16:17;34.80;;;31.52;;
26191;SDS011;13935;55.672;37.764;2022-07-06T05:17:19;32.63;;;29.63;;
26191;SDS011;13935;55.672;37.764;2022-07-06T05:18:30;32.58;;;29.48;;
26191;SDS011;13935;55.672;37.764;2022-07-06T05:19:33;31.23;;;28.20;;
26191;SDS011;13935;55.672;37.764;2022-07-06T05:20:36;31.67;;;28.23;;
26191;SDS011;13935;55.672;37.764;2022-07-06T05:21:39;32.08;;;28.88;;
26191;SDS011;13935;55.672;37.764;2022-07-06T05:22:43;30.75;;;27.73;;
26191;SDS011;13935;55.672;37.764;2022-07-06T05:23:50;30.92;;;27.92;;
26191;SDS011;13935;55.672;37.764;2022-07-06T05:24:55;30.55;;;27.55;;
26191;SDS011;13935;55.672;37.764;2022-07-06T05:25:57;30.65;;;27.63;;
26191;SDS011;13935;55.672;37.764;2022-07-06T05:26:59;31.25;;;28.02;;
26191;SDS011;13935;55.672;37.764;2022-07-06T05:28:02;30.77;;;27.73;;
26191;SDS011;13935;55.672;37.764;2022-07-06T05:29:05;31.38;;;28.27;;
26191;SDS011;13935;55.672;37.764;2022-07-06T05:30:08;30.23;;;27.42;;
26191;SDS011;13935;55.672;37.764;2022-07-06T05:31:12;29.10;;;26.45;;
26191;SDS011;13935;55.672;37.764;2022-07-06T05:32:15;29.10;;;26.38;;
26191;SDS011;13935;55.672;37.764;2022-07-06T05:33:17;29.30;;;26.70;;
26191;SDS011;13935;55.672;37.764;2022-07-06T05:34:20;31.58;;;28.17;;
26191;SDS011;13935;55.672;37.764;2022-07-06T05:35:23;33.10;;;28.33;;
26191;SDS011;13935;55.672;37.764;2022-07-06T05:36:46;29.70;;;26.88;;
26191;SDS011;13935;55.672;37.764;2022-07-06T05:37:48;30.38;;;27.52;;
26191;SDS011;13935;55.672;37.764;2022-07-06T05:38:51;29.35;;;26.50;;
26191;SDS011;13935;55.672;37.764;2022-07-06T05:39:53;30.77;;;27.77;;
26191;SDS011;13935;55.672;37.764;2022-07-06T05:40:55;29.75;;;26.95;;
26191;SDS011;13935;55.672;37.764;2022-07-06T05:41:57;31.25;;;28.30;;
26191;SDS011;13935;55.672;37.764;2022-07-06T05:42:59;30.48;;;27.58;;
26191;SDS011;13935;55.672;37.764;2022-07-06T05:44:01;29.63;;;26.92;;
26191;SDS011;13935;55.672;37.764;2022-07-06T05:45:04;27.58;;;25.08;;
26191;SDS011;13935;55.672;37.764;2022-07-06T05:46:07;29.35;;;26.45;;
26191;SDS011;13935;55.672;37.764;2022-07-06T05:47:10;30.40;;;27.40;;
26191;SDS011;13935;55.672;37.764;2022-07-06T05:48:32;29.70;;;26.50;;
26191;SDS011;13935;55.672;37.764;2022-07-06T05:49:53;28.35;;;25.48;;
26191;SDS011;13935;55.672;37.764;2022-07-06T05:51:18;28.67;;;25.88;;
26191;SDS011;13935;55.672;37.764;2022-07-06T05:52:21;27.98;;;25.33;;
26191;SDS011;13935;55.672;37.764;2022-07-06T05:53:23;27.83;;;25.20;;
26191;SDS011;13935;55.672;37.764;2022-07-06T05:54:27;28.10;;;25.50;;
26191;SDS011;13935;55.672;37.764;2022-07-06T05:55:32;28.25;;;25.55;;
26191;SDS011;13935;55.672;37.764;2022-07-06T05:56:36;28.88;;;26.27;;
26191;SDS011;13935;55.672;37.764;2022-07-06T05:57:40;25.65;;;23.00;;
26191;SDS011;13935;55.672;37.764;2022-07-06T05:58:42;27.63;;;25.13;;
26191;SDS011;13935;55.672;37.764;2022-07-06T05:59:47;27.42;;;24.58;;
26191;SDS011;13935;55.672;37.764;2022-07-06T06:00:50;29.30;;;26.38;;
26191;SDS011;13935;55.672;37.764;2022-07-06T06:01:54;27.65;;;25.25;;
26191;SDS011;13935;55.672;37.764;2022-07-06T06:02:58;26.55;;;23.70;;
26191;SDS011;13935;55.672;37.764;2022-07-06T06:04:04;27.55;;;24.95;;
26191;SDS011;13935;55.672;37.764;2022-07-06T06:05:07;26.05;;;23.42;;
26191;SDS011;13935;55.672;37.764;2022-07-06T06:06:11;26.15;;;23.75;;
26191;SDS011;13935;55.672;37.764;2022-07-06T06:07:13;26.35;;;24.05;;
26191;SDS011;13935;55.672;37.764;2022-07-06T06:08:15;24.15;;;21.80;;
26191;SDS011;13935;55.672;37.764;2022-07-06T06:09:17;27.23;;;24.95;;
26191;SDS011;13935;55.672;37.764;2022-07-06T06:10:20;24.75;;;22.27;;
26191;SDS011;13935;55.672;37.764;2022-07-06T06:11:26;25.45;;;22.80;;